Time;durP1;ratioP1;P1;durP2;ratioP2;P2;SDS_P1;SDS_P2;PMS_P1;PMS_P2;Temp;Humidity;BMP_temperature;BMP_pressure;BME280_temperature;BME280_humidity;BME280_pressure;Samples;Min_cycle;Max_cycle;Signal;HPM_P1;HPM_P2
2023/08/23 00:02:19;;;;;;;;;2.00;2.00;;;;;;;;5010805;28;45254;-79
2023/08/23 00:04:44;;;;;;;;;1.00;1.00;;;;;;;;5008271;28;45513;-78
2023/08/23 00:07:09;;;;;;;;;1.00;1.00;;;;;;;;5009962;28;45589;-78
2023/08/23 00:09:34;;;;;;;;;3.50;1.00;;;;;;;;5007688;28;45336;-78
2023/08/23 00:12:00;;;;;;;;;1.00;1.00;;;;;;;;5017627;28;45640;-78
2023/08/23 00:14:25;;;;;;;;;1.00;1.00;;;;;;;;5011617;28;45256;-77
2023/08/23 00:16:50;;;;;;;;;3.00;0.25;;;;;;;;5006660;28;45461;-79
2023/08/23 00:19:15;;;;;;;;;2.00;1.75;;;;;;;;5008958;28;46673;-77
2023/08/23 00:21:40;;;;;;;;;1.75;1.75;;;;;;;;5006209;28;45225;-78
2023/08/23 00:24:06;;;;;;;;;3.00;1.25;;;;;;;;5009052;28;45359;-78
2023/08/23 00:26:31;;;;;;;;;0.75;0.75;;;;;;;;5015025;28;45514;-79
2023/08/23 00:28:56;;;;;;;;;1.50;0.75;;;;;;;;5008731;28;46055;-78
2023/08/23 00:31:22;;;;;;;;;1.50;1.50;;;;;;;;5008703;28;45403;-82
2023/08/23 00:33:47;;;;;;;;;1.00;1.00;;;;;;;;5007955;28;45309;-83
2023/08/23 00:36:12;;;;;;;;;0.75;0.00;;;;;;;;5009094;28;44851;-82
2023/08/23 00:38:37;;;;;;;;;3.00;1.00;;;;;;;;5006162;28;45497;-82
2023/08/23 00:41:03;;;;;;;;;1.00;1.00;;;;;;;;5018029;28;45261;-83
2023/08/23 00:43:28;;;;;;;;;1.00;1.00;;;;;;;;5005434;28;45277;-81
2023/08/23 00:45:53;;;;;;;;;1.00;1.00;;;;;;;;5013045;28;45459;-82
2023/08/23 00:48:18;;;;;;;;;1.00;1.00;;;;;;;;5006022;28;49499;-82
2023/08/23 00:50:45;;;;;;;;;0.00;0.00;;;;;;;;5011384;28;45335;-82
2023/08/23 00:53:10;;;;;;;;;1.25;1.25;;;;;;;;5006901;28;45391;-83
2023/08/23 00:55:36;;;;;;;;;0.50;0.50;;;;;;;;5011734;28;45214;-84
2023/08/23 00:58:02;;;;;;;;;1.00;1.00;;;;;;;;5004861;28;45676;-84
2023/08/23 01:00:27;;;;;;;;;2.75;1.00;;;;;;;;5011061;28;45332;-84
2023/08/23 01:02:53;;;;;;;;;1.00;1.00;;;;;;;;5006733;28;45376;-86
2023/08/23 01:05:19;;;;;;;;;0.25;0.25;;;;;;;;5008104;28;45417;-86
2023/08/23 01:07:50;;;;;;;;;1.25;1.25;;;;;;;;5007122;28;45593;-85
2023/08/23 01:10:18;;;;;;;;;1.50;1.00;;;;;;;;5018182;28;45308;-84
2023/08/23 01:12:48;;;;;;;;;0.50;0.50;;;;;;;;5016422;28;45478;-84
2023/08/23 01:15:14;;;;;;;;;1.00;1.00;;;;;;;;5015751;28;45158;-85
2023/08/23 01:17:42;;;;;;;;;1.00;1.00;;;;;;;;5011235;28;46527;-84
2023/08/23 01:20:11;;;;;;;;;1.75;1.75;;;;;;;;5009614;28;45939;-84
2023/08/23 01:22:38;;;;;;;;;1.25;1.00;;;;;;;;5008257;28;45335;-83
2023/08/23 01:25:04;;;;;;;;;2.00;1.00;;;;;;;;5014476;28;47049;-82
2023/08/23 01:27:29;;;;;;;;;2.00;1.00;;;;;;;;5016993;28;45198;-82
2023/08/23 01:29:54;;;;;;;;;1.00;1.00;;;;;;;;5015246;28;45412;-82
2023/08/23 01:32:37;;;;;;;;;0.25;0.25;;;;;;;;5010650;28;45602;-81
2023/08/23 01:35:08;;;;;;;;;1.00;0.25;;;;;;;;5009778;28;45480;-82
2023/08/23 01:37:36;;;;;;;;;0.75;0.75;;;;;;;;5011706;28;45708;-82
2023/08/23 01:40:01;;;;;;;;;0.75;0.75;;;;;;;;5009688;28;45428;-83
2023/08/23 01:42:26;;;;;;;;;1.00;1.00;;;;;;;;5010183;28;45689;-82
2023/08/23 01:44:51;;;;;;;;;0.00;0.00;;;;;;;;5002310;28;45428;-84
2023/08/23 01:47:17;;;;;;;;;0.00;0.00;;;;;;;;5035748;28;47998;-89
2023/08/23 01:49:43;;;;;;;;;1.00;1.00;;;;;;;;5006801;28;45177;-88
2023/08/23 02:23:37;;;;;;;;;0.20;0.20;;;;;;;;4948513;28;1190095;-79
2023/08/23 02:26:02;;;;;;;;;0.00;0.00;;;;;;;;4996734;28;45426;-81
2023/08/23 02:28:28;;;;;;;;;1.50;1.50;;;;;;;;4998377;28;45527;-82
2023/08/23 02:31:00;;;;;;;;;0.00;0.00;;;;;;;;4998598;28;45305;-86
2023/08/23 02:33:25;;;;;;;;;1.25;0.00;;;;;;;;4995178;28;45600;-81
2023/08/23 02:35:50;;;;;;;;;0.00;0.00;;;;;;;;4999328;28;45502;-80
2023/08/23 02:38:15;;;;;;;;;2.75;1.00;;;;;;;;4993551;28;45407;-82
2023/08/23 02:40:41;;;;;;;;;0.00;0.00;;;;;;;;4998266;28;45699;-82
2023/08/23 02:43:06;;;;;;;;;0.50;0.00;;;;;;;;4992779;28;45442;-82
2023/08/23 02:45:32;;;;;;;;;1.00;1.00;;;;;;;;4999751;28;45377;-82
2023/08/23 02:47:57;;;;;;;;;1.00;0.25;;;;;;;;4993909;28;45485;-82
2023/08/23 02:50:22;;;;;;;;;2.67;1.00;;;;;;;;4999650;28;45510;-80
2023/08/23 02:52:47;;;;;;;;;0.00;0.00;;;;;;;;5010506;28;45346;-80
2023/08/23 02:55:12;;;;;;;;;0.00;0.00;;;;;;;;4999750;28;45426;-79
2023/08/23 02:57:38;;;;;;;;;0.33;0.33;;;;;;;;4997422;28;46633;-79
2023/08/23 03:00:03;;;;;;;;;0.33;0.33;;;;;;;;4999153;28;45407;-79
2023/08/23 03:02:28;;;;;;;;;1.00;1.00;;;;;;;;5013868;28;45471;-80
2023/08/23 03:04:53;;;;;;;;;1.00;1.00;;;;;;;;4999405;28;45478;-80
2023/08/23 03:07:18;;;;;;;;;0.67;0.67;;;;;;;;4993875;28;46336;-76
2023/08/23 03:09:44;;;;;;;;;1.33;1.00;;;;;;;;4998676;28;45313;-80
2023/08/23 03:12:09;;;;;;;;;1.00;1.00;;;;;;;;4996397;28;45395;-78
2023/08/23 03:14:34;;;;;;;;;1.00;1.00;;;;;;;;4999149;28;45323;-77
2023/08/23 03:16:59;;;;;;;;;0.67;0.67;;;;;;;;4995256;28;45520;-76
2023/08/23 03:19:24;;;;;;;;;1.00;1.00;;;;;;;;4999076;28;45307;-79
2023/08/23 03:21:50;;;;;;;;;0.33;0.33;;;;;;;;5011098;28;45346;-81
2023/08/23 03:24:15;;;;;;;;;1.00;1.00;;;;;;;;4998790;28;45383;-80
2023/08/23 03:26:40;;;;;;;;;0.67;0.67;;;;;;;;4997448;28;46327;-81
2023/08/23 03:29:05;;;;;;;;;2.67;1.00;;;;;;;;4991590;28;44916;-81
2023/08/23 03:31:30;;;;;;;;;1.33;0.67;;;;;;;;5000255;28;45578;-81
2023/08/23 03:33:55;;;;;;;;;1.00;1.00;;;;;;;;4996171;28;45216;-77
2023/08/23 03:36:21;;;;;;;;;0.67;0.67;;;;;;;;4995986;28;45409;-77
2023/08/23 03:38:47;;;;;;;;;1.67;1.67;;;;;;;;4997423;28;45499;-79
2023/08/23 03:41:13;;;;;;;;;2.00;1.00;;;;;;;;4997419;28;45272;-77
2023/08/23 03:43:38;;;;;;;;;1.00;1.00;;;;;;;;4995631;28;45879;-77
2023/08/23 03:46:03;;;;;;;;;2.00;1.00;;;;;;;;4997150;28;46495;-77
2023/08/23 03:48:28;;;;;;;;;1.00;1.00;;;;;;;;4997983;28;45200;-78
2023/08/23 03:50:57;;;;;;;;;1.00;1.00;;;;;;;;4998226;28;45526;-76
2023/08/23 03:53:22;;;;;;;;;0.67;0.67;;;;;;;;4995993;28;45226;-76
2023/08/23 03:55:50;;;;;;;;;2.00;2.00;;;;;;;;4998563;28;46558;-76
2023/08/23 03:58:16;;;;;;;;;1.67;1.67;;;;;;;;5011817;28;46375;-76
2023/08/23 04:00:41;;;;;;;;;1.00;1.00;;;;;;;;4997211;28;45336;-77
2023/08/23 04:03:06;;;;;;;;;0.33;0.33;;;;;;;;4993794;28;45253;-78
2023/08/23 04:05:32;;;;;;;;;2.33;1.00;;;;;;;;4999947;28;46753;-77
2023/08/23 04:07:57;;;;;;;;;2.00;2.00;;;;;;;;5009109;28;45291;-77
2023/08/23 04:10:22;;;;;;;;;3.67;0.67;;;;;;;;4997335;28;45367;-78
2023/08/23 04:12:47;;;;;;;;;0.67;0.67;;;;;;;;4995252;28;45289;-78
2023/08/23 04:15:12;;;;;;;;;1.00;1.00;;;;;;;;4998659;28;45576;-75
2023/08/23 04:17:38;;;;;;;;;2.00;2.00;;;;;;;;5011767;28;45321;-75
2023/08/23 04:20:03;;;;;;;;;1.67;1.67;;;;;;;;4998261;28;45370;-75
2023/08/23 04:22:30;;;;;;;;;4.00;2.00;;;;;;;;4997413;28;45310;-76
2023/08/23 04:24:55;;;;;;;;;1.33;1.33;;;;;;;;5000587;28;45447;-77
2023/08/23 04:27:21;;;;;;;;;0.67;0.67;;;;;;;;4994492;28;45404;-77
2023/08/23 04:29:46;;;;;;;;;1.00;1.00;;;;;;;;5000086;28;45700;-76
2023/08/23 04:32:12;;;;;;;;;1.33;1.33;;;;;;;;5014481;28;45831;-77
2023/08/23 04:34:37;;;;;;;;;2.33;2.33;;;;;;;;4999515;28;47319;-77
2023/08/23 04:37:04;;;;;;;;;6.50;3.00;;;;;;;;4999322;28;45373;-75
2023/08/23 04:39:29;;;;;;;;;3.00;1.67;;;;;;;;5001824;28;45530;-76
2023/08/23 04:41:54;;;;;;;;;2.33;2.33;;;;;;;;4999389;28;45339;-78
2023/08/23 04:44:20;;;;;;;;;0.67;0.67;;;;;;;;5001933;28;46641;-76
2023/08/23 04:46:45;;;;;;;;;3.33;2.00;;;;;;;;5014688;28;45497;-76
2023/08/23 04:49:10;;;;;;;;;2.33;2.33;;;;;;;;5001785;28;45459;-76
2023/08/23 04:51:35;;;;;;;;;1.67;1.67;;;;;;;;4997013;28;46378;-75
2023/08/23 04:54:00;;;;;;;;;2.00;2.00;;;;;;;;4994995;28;47225;-74
2023/08/23 04:56:25;;;;;;;;;2.00;2.00;;;;;;;;4999186;28;45246;-76
2023/08/23 04:58:51;;;;;;;;;4.67;3.00;;;;;;;;5008769;28;45165;-77
2023/08/23 05:01:16;;;;;;;;;2.67;2.00;;;;;;;;4998078;28;45499;-77
2023/08/23 05:03:41;;;;;;;;;3.00;3.00;;;;;;;;4996690;28;45352;-78
2023/08/23 05:06:06;;;;;;;;;4.00;3.00;;;;;;;;5000962;28;45249;-77
2023/08/23 05:08:33;;;;;;;;;3.33;2.00;;;;;;;;5012392;28;45306;-78
2023/08/23 05:10:58;;;;;;;;;2.00;2.00;;;;;;;;5000289;28;45256;-77
2023/08/23 05:13:23;;;;;;;;;3.33;3.00;;;;;;;;5012779;28;48186;-76
2023/08/23 05:15:52;;;;;;;;;3.00;3.00;;;;;;;;5001205;28;45435;-80
2023/08/23 05:18:17;;;;;;;;;3.00;2.00;;;;;;;;4998806;28;45487;-78
2023/08/23 05:20:42;;;;;;;;;2.33;2.33;;;;;;;;4999501;28;45375;-77
2023/08/23 05:23:07;;;;;;;;;3.00;3.00;;;;;;;;4997663;28;45501;-78
2023/08/23 05:25:33;;;;;;;;;2.00;2.00;;;;;;;;5001216;28;45447;-77
2023/08/23 05:27:58;;;;;;;;;1.67;1.67;;;;;;;;4997656;28;45433;-79
2023/08/23 05:30:23;;;;;;;;;2.00;2.00;;;;;;;;5000138;28;45360;-78
2023/08/23 05:32:48;;;;;;;;;2.67;2.00;;;;;;;;4997717;28;47875;-78
2023/08/23 05:35:14;;;;;;;;;4.00;2.33;;;;;;;;4998420;28;45344;-77
2023/08/23 05:37:39;;;;;;;;;4.00;2.00;;;;;;;;4993050;28;45426;-78
2023/08/23 05:40:08;;;;;;;;;3.67;1.67;;;;;;;;5000158;28;45617;-81
2023/08/23 05:42:33;;;;;;;;;3.00;3.00;;;;;;;;4994441;28;45454;-78
2023/08/23 05:44:59;;;;;;;;;3.33;2.00;;;;;;;;4999733;28;45268;-77
2023/08/23 05:47:24;;;;;;;;;7.00;2.67;;;;;;;;4995737;28;45228;-76
2023/08/23 05:49:49;;;;;;;;;2.00;2.00;;;;;;;;5000130;28;45405;-75
2023/08/23 05:52:14;;;;;;;;;2.00;2.00;;;;;;;;4994052;28;45667;-79
2023/08/23 05:54:39;;;;;;;;;1.33;1.33;;;;;;;;5000645;28;45154;-78
2023/08/23 05:57:05;;;;;;;;;2.00;2.00;;;;;;;;4995703;28;45371;-77
2023/08/23 05:59:30;;;;;;;;;4.33;4.33;;;;;;;;4997686;28;45400;-77
2023/08/23 06:01:55;;;;;;;;;1.67;1.67;;;;;;;;4998964;28;46278;-78
2023/08/23 06:04:20;;;;;;;;;2.33;2.33;;;;;;;;4998956;28;45492;-77
2023/08/23 06:06:46;;;;;;;;;5.33;2.00;;;;;;;;5012293;28;45438;-78
2023/08/23 06:09:12;;;;;;;;;1.50;1.50;;;;;;;;4998519;28;45538;-79
2023/08/23 06:11:37;;;;;;;;;4.00;1.67;;;;;;;;4996939;28;46234;-78
2023/08/23 06:14:18;;;;;;;;;4.00;3.00;;;;;;;;5015016;28;45336;-78
2023/08/23 06:16:43;;;;;;;;;1.67;1.67;;;;;;;;5013555;28;45436;-76
2023/08/23 06:19:08;;;;;;;;;2.00;2.00;;;;;;;;4994725;28;45690;-76
2023/08/23 06:21:34;;;;;;;;;2.00;2.00;;;;;;;;4997511;28;45252;-79
2023/08/23 06:23:59;;;;;;;;;2.00;2.00;;;;;;;;5009744;28;45355;-79
2023/08/23 06:26:24;;;;;;;;;2.00;2.00;;;;;;;;4998449;28;45953;-80
2023/08/23 06:28:49;;;;;;;;;4.67;2.00;;;;;;;;4995838;28;45622;-78
2023/08/23 06:31:21;;;;;;;;;2.00;2.00;;;;;;;;4996310;28;45649;-78
2023/08/23 06:33:46;;;;;;;;;1.67;1.67;;;;;;;;5014271;28;45334;-78
2023/08/23 06:36:11;;;;;;;;;1.67;1.00;;;;;;;;5010821;28;45600;-80
2023/08/23 06:38:36;;;;;;;;;1.67;1.67;;;;;;;;4991121;28;45656;-82
2023/08/23 06:41:01;;;;;;;;;2.00;2.00;;;;;;;;4998339;28;45706;-79
2023/08/23 06:43:27;;;;;;;;;4.67;2.00;;;;;;;;4992202;28;45411;-77
2023/08/23 06:45:52;;;;;;;;;4.00;2.00;;;;;;;;4999277;28;45372;-80
2023/08/23 06:48:17;;;;;;;;;2.67;1.67;;;;;;;;4993172;28;45619;-80
2023/08/23 06:50:42;;;;;;;;;2.00;2.00;;;;;;;;5006373;28;46545;-77
2023/08/23 06:53:08;;;;;;;;;3.67;2.67;;;;;;;;4995325;28;45374;-78
2023/08/23 06:55:38;;;;;;;;;5.00;2.00;;;;;;;;4998677;28;45431;-78
2023/08/23 06:58:03;;;;;;;;;3.00;3.00;;;;;;;;4993723;28;45365;-76
2023/08/23 07:00:28;;;;;;;;;4.00;2.33;;;;;;;;4999671;28;45516;-77
2023/08/23 07:02:54;;;;;;;;;3.00;2.00;;;;;;;;4995556;28;45399;-75
2023/08/23 07:05:19;;;;;;;;;3.00;3.00;;;;;;;;4999464;28;45451;-78
2023/08/23 07:07:44;;;;;;;;;2.33;0.00;;;;;;;;4996731;28;45376;-76
2023/08/23 07:10:09;;;;;;;;;4.67;2.00;;;;;;;;4999252;28;45594;-81
2023/08/23 07:12:34;;;;;;;;;5.33;3.67;;;;;;;;4995848;28;45267;-79
2023/08/23 07:15:00;;;;;;;;;4.00;4.00;;;;;;;;4999391;28;45277;-81
2023/08/23 07:17:25;;;;;;;;;5.00;3.00;;;;;;;;4993908;28;45423;-81
2023/08/23 07:19:50;;;;;;;;;3.25;2.25;;;;;;;;4998761;28;45539;-78
2023/08/23 07:22:15;;;;;;;;;4.00;3.00;;;;;;;;4994380;28;45510;-79
2023/08/23 07:24:40;;;;;;;;;1.75;1.75;;;;;;;;4999453;28;45332;-81
2023/08/23 07:27:06;;;;;;;;;3.00;3.00;;;;;;;;5011090;28;46058;-79
2023/08/23 07:29:31;;;;;;;;;2.50;2.50;;;;;;;;4998989;28;45722;-78
2023/08/23 07:31:57;;;;;;;;;2.00;1.75;;;;;;;;4997010;28;45272;-80
2023/08/23 07:34:22;;;;;;;;;6.75;3.00;;;;;;;;4992331;28;45487;-80
2023/08/23 07:36:47;;;;;;;;;3.00;3.00;;;;;;;;4997753;28;45224;-80
2023/08/23 07:39:12;;;;;;;;;1.00;1.00;;;;;;;;5004966;28;48230;-80
2023/08/23 07:41:37;;;;;;;;;4.75;3.75;;;;;;;;4995635;28;45186;-83
2023/08/23 07:44:03;;;;;;;;;3.00;2.00;;;;;;;;4996440;28;45273;-77
2023/08/23 07:46:28;;;;;;;;;4.25;3.00;;;;;;;;4995948;28;45461;-82
2023/08/23 07:48:53;;;;;;;;;4.00;3.00;;;;;;;;4995725;28;45418;-81
2023/08/23 07:51:18;;;;;;;;;2.50;2.00;;;;;;;;4996812;28;45262;-80
2023/08/23 07:53:44;;;;;;;;;3.25;3.00;;;;;;;;4992879;28;45516;-78
2023/08/23 07:56:12;;;;;;;;;3.00;1.75;;;;;;;;4996044;28;46837;-75
2023/08/23 07:58:38;;;;;;;;;2.00;2.00;;;;;;;;5009042;28;47142;-78
2023/08/23 08:01:04;;;;;;;;;2.60;2.00;;;;;;;;5001001;28;45412;-76
2023/08/23 08:03:29;;;;;;;;;4.00;2.00;;;;;;;;4997254;28;45301;-75
2023/08/23 08:05:55;;;;;;;;;3.50;3.50;;;;;;;;4999746;28;46682;-77
2023/08/23 08:08:20;;;;;;;;;2.50;2.50;;;;;;;;4995878;28;45353;-79
2023/08/23 08:10:45;;;;;;;;;1.25;1.25;;;;;;;;5017518;28;45283;-80
2023/08/23 08:13:10;;;;;;;;;2.00;2.00;;;;;;;;4996946;28;45439;-77
2023/08/23 08:15:36;;;;;;;;;2.00;2.00;;;;;;;;5002069;28;45395;-78
2023/08/23 08:18:02;;;;;;;;;3.50;2.00;;;;;;;;5015020;28;47665;-79
2023/08/23 08:20:27;;;;;;;;;2.60;2.60;;;;;;;;4998947;28;45305;-80
2023/08/23 08:22:53;;;;;;;;;4.25;2.75;;;;;;;;4997446;28;45475;-79
2023/08/23 08:25:18;;;;;;;;;3.00;3.00;;;;;;;;4997167;28;47091;-79
2023/08/23 08:27:43;;;;;;;;;3.00;3.00;;;;;;;;5011102;28;47152;-76
2023/08/23 08:30:08;;;;;;;;;2.00;2.00;;;;;;;;5001404;28;45435;-76
2023/08/23 08:32:34;;;;;;;;;3.00;2.50;;;;;;;;5011608;28;45403;-82
2023/08/23 08:35:00;;;;;;;;;2.75;2.50;;;;;;;;5001648;28;45464;-85
2023/08/23 08:37:25;;;;;;;;;2.80;2.00;;;;;;;;4999465;28;45417;-87
2023/08/23 08:39:50;;;;;;;;;1.75;1.75;;;;;;;;5001760;28;44717;-79
2023/08/23 08:42:16;;;;;;;;;2.00;2.00;;;;;;;;4995963;28;45418;-82
2023/08/23 08:44:44;;;;;;;;;3.75;2.25;;;;;;;;5004528;28;45373;-81
2023/08/23 08:47:09;;;;;;;;;2.40;1.40;;;;;;;;5001204;28;46248;-83
2023/08/23 08:49:35;;;;;;;;;3.50;2.00;;;;;;;;5001795;28;45477;-81
2023/08/23 08:52:03;;;;;;;;;2.50;2.50;;;;;;;;4996433;28;45459;-81
2023/08/23 08:54:28;;;;;;;;;2.40;2.20;;;;;;;;5001751;28;45305;-79
2023/08/23 08:56:54;;;;;;;;;4.00;4.00;;;;;;;;4996172;28;46189;-82
2023/08/23 08:59:20;;;;;;;;;1.25;1.25;;;;;;;;5001014;28;45593;-79
2023/08/23 09:01:45;;;;;;;;;6.00;4.00;;;;;;;;4998078;28;45549;-82
2023/08/23 09:04:10;;;;;;;;;5.50;2.00;;;;;;;;4999185;28;44731;-82
2023/08/23 09:06:38;;;;;;;;;4.50;3.25;;;;;;;;4998318;28;45478;-79
2023/08/23 09:09:04;;;;;;;;;4.00;3.40;;;;;;;;4999881;28;45390;-79
2023/08/23 09:11:30;;;;;;;;;3.00;3.00;;;;;;;;5014195;28;45335;-78
2023/08/23 09:13:55;;;;;;;;;5.20;4.60;;;;;;;;4999950;28;45499;-80
2023/08/23 09:16:20;;;;;;;;;1.50;1.00;;;;;;;;4999500;28;45570;-87
2023/08/23 09:18:46;;;;;;;;;5.25;3.50;;;;;;;;4997816;28;45263;-81
2023/08/23 09:21:12;;;;;;;;;6.25;4.25;;;;;;;;5014493;28;45331;-81
2023/08/23 09:23:37;;;;;;;;;5.80;5.20;;;;;;;;4996017;28;45325;-82
2023/08/23 09:26:02;;;;;;;;;5.25;4.00;;;;;;;;5000053;28;45637;-81
2023/08/23 09:28:29;;;;;;;;;5.00;3.25;;;;;;;;4998373;28;45331;-78
2023/08/23 09:30:54;;;;;;;;;3.80;3.80;;;;;;;;5013919;28;45331;-78
2023/08/23 09:33:19;;;;;;;;;3.75;3.00;;;;;;;;4998106;28;45338;-79
2023/08/23 09:35:48;;;;;;;;;4.00;2.25;;;;;;;;5000753;28;45668;-78
2023/08/23 09:38:17;;;;;;;;;2.00;2.00;;;;;;;;4997174;28;45420;-76
2023/08/23 09:40:42;;;;;;;;;2.00;2.00;;;;;;;;4990098;28;45215;-75
2023/08/23 09:43:08;;;;;;;;;3.25;3.25;;;;;;;;4998609;28;45559;-76
2023/08/23 09:45:33;;;;;;;;;3.00;2.50;;;;;;;;5000332;28;45413;-75
2023/08/23 09:47:59;;;;;;;;;4.25;4.25;;;;;;;;5011965;28;45455;-78
2023/08/23 09:50:25;;;;;;;;;2.00;2.00;;;;;;;;5000451;28;45260;-78
2023/08/23 09:52:57;;;;;;;;;2.25;2.00;;;;;;;;4996399;28;45597;-76
2023/08/23 09:55:22;;;;;;;;;2.60;2.60;;;;;;;;5000362;28;45387;-76
2023/08/23 09:57:48;;;;;;;;;4.00;4.00;;;;;;;;4996872;28;45492;-79
2023/08/23 10:00:14;;;;;;;;;4.25;3.00;;;;;;;;5000457;28;45325;-77
2023/08/23 10:02:41;;;;;;;;;3.80;3.20;;;;;;;;4994282;28;45543;-76
2023/08/23 10:05:08;;;;;;;;;3.80;3.80;;;;;;;;5015117;28;46895;-77
2023/08/23 10:07:34;;;;;;;;;3.80;3.60;;;;;;;;4993426;28;45508;-78
2023/08/23 10:10:01;;;;;;;;;4.60;3.80;;;;;;;;4999946;28;45433;-79
2023/08/23 10:12:27;;;;;;;;;3.00;3.00;;;;;;;;4996256;28;45278;-77
2023/08/23 10:14:54;;;;;;;;;3.25;3.25;;;;;;;;4998484;28;46536;-76
2023/08/23 10:17:20;;;;;;;;;4.80;3.40;;;;;;;;5010917;28;45238;-77
2023/08/23 10:19:49;;;;;;;;;3.00;3.00;;;;;;;;4999424;28;45412;-74
2023/08/23 10:22:16;;;;;;;;;5.20;4.00;;;;;;;;4997342;28;45273;-76
2023/08/23 10:24:45;;;;;;;;;4.40;4.40;;;;;;;;5000137;28;45502;-77
2023/08/23 10:27:10;;;;;;;;;3.60;3.60;;;;;;;;4997169;28;45398;-77
2023/08/23 10:29:38;;;;;;;;;3.50;3.50;;;;;;;;4999927;28;45226;-77
2023/08/23 10:32:11;;;;;;;;;5.00;3.00;;;;;;;;4996828;28;45525;-76
2023/08/23 10:34:37;;;;;;;;;4.60;4.60;;;;;;;;4998757;28;47161;-78
2023/08/23 10:37:32;;;;;;;;;2.80;2.80;;;;;;;;4997086;28;45374;-79
2023/08/23 10:39:59;;;;;;;;;4.00;3.00;;;;;;;;4991725;28;45403;-77
2023/08/23 10:42:25;;;;;;;;;1.00;1.00;;;;;;;;5009079;28;45705;-78
2023/08/23 10:45:09;;;;;;;;;4.75;3.75;;;;;;;;4999240;28;46236;-80
2023/08/23 10:47:35;;;;;;;;;3.80;3.80;;;;;;;;4991931;28;45439;-75
2023/08/23 10:50:02;;;;;;;;;2.60;2.60;;;;;;;;4997287;28;45347;-77
2023/08/23 10:52:27;;;;;;;;;4.20;3.40;;;;;;;;4991551;28;45887;-78
2023/08/23 10:54:54;;;;;;;;;3.75;2.75;;;;;;;;4998307;28;46326;-75
2023/08/23 10:57:19;;;;;;;;;3.80;3.80;;;;;;;;4991817;28;45414;-76
2023/08/23 10:59:45;;;;;;;;;4.50;4.00;;;;;;;;4999169;28;45259;-76
2023/08/23 11:02:10;;;;;;;;;4.00;3.75;;;;;;;;4994093;28;45281;-77
2023/08/23 11:04:35;;;;;;;;;4.50;4.25;;;;;;;;4999066;28;45372;-75
2023/08/23 11:07:01;;;;;;;;;5.00;5.00;;;;;;;;4994956;28;45419;-75
2023/08/23 11:09:26;;;;;;;;;3.25;3.25;;;;;;;;4999718;28;45168;-75
2023/08/23 11:11:52;;;;;;;;;4.25;4.00;;;;;;;;4996096;28;45549;-75
2023/08/23 11:14:17;;;;;;;;;6.25;6.25;;;;;;;;4995534;28;46944;-76
2023/08/23 11:16:43;;;;;;;;;4.00;4.00;;;;;;;;4994909;28;45644;-75
2023/08/23 11:19:09;;;;;;;;;3.75;3.00;;;;;;;;4999000;28;45415;-76
2023/08/23 11:21:35;;;;;;;;;4.80;3.40;;;;;;;;4997026;28;45494;-74
2023/08/23 11:24:06;;;;;;;;;7.25;5.00;;;;;;;;4998318;28;45669;-76
2023/08/23 11:26:37;;;;;;;;;6.20;5.40;;;;;;;;4997174;28;45426;-77
2023/08/23 11:29:03;;;;;;;;;6.00;4.80;;;;;;;;4989540;28;45357;-75
2023/08/23 11:31:29;;;;;;;;;5.25;5.25;;;;;;;;4996667;28;46343;-75
2023/08/23 11:33:55;;;;;;;;;6.00;6.00;;;;;;;;4998410;28;46427;-76
2023/08/23 11:36:21;;;;;;;;;4.60;4.60;;;;;;;;4997368;28;45194;-75
2023/08/23 11:38:46;;;;;;;;;5.25;4.50;;;;;;;;4991663;28;45423;-75
2023/08/23 11:41:11;;;;;;;;;4.50;4.25;;;;;;;;4997265;28;45441;-76
2023/08/23 11:43:43;;;;;;;;;5.25;5.00;;;;;;;;4991822;28;45549;-77
2023/08/23 11:46:08;;;;;;;;;7.20;4.80;;;;;;;;4997684;28;45457;-77
2023/08/23 11:48:34;;;;;;;;;6.75;6.75;;;;;;;;5000894;28;45495;-77
2023/08/23 11:51:01;;;;;;;;;7.50;6.00;;;;;;;;4997871;28;45380;-77
2023/08/23 11:53:26;;;;;;;;;7.20;5.40;;;;;;;;4994926;28;45344;-77
2023/08/23 11:55:51;;;;;;;;;7.50;6.00;;;;;;;;4998407;28;45336;-76
2023/08/23 11:58:16;;;;;;;;;6.50;6.50;;;;;;;;4991756;28;45573;-77
2023/08/23 12:00:42;;;;;;;;;7.00;5.75;;;;;;;;4998416;28;45365;-77
2023/08/23 12:03:23;;;;;;;;;7.00;6.50;;;;;;;;4992050;28;45667;-78
2023/08/23 12:05:48;;;;;;;;;8.00;6.80;;;;;;;;5000943;28;45285;-77
2023/08/23 12:08:14;;;;;;;;;6.00;6.00;;;;;;;;4992305;28;45375;-77
2023/08/23 12:10:39;;;;;;;;;6.50;5.50;;;;;;;;4997115;28;47079;-77
2023/08/23 12:13:04;;;;;;;;;7.50;6.50;;;;;;;;4992311;28;46282;-77
2023/08/23 12:15:29;;;;;;;;;6.50;6.50;;;;;;;;4993981;28;45251;-77
2023/08/23 12:17:55;;;;;;;;;6.00;6.00;;;;;;;;4994006;28;45277;-79
2023/08/23 12:20:20;;;;;;;;;5.00;4.75;;;;;;;;4998434;28;45474;-76
2023/08/23 12:22:46;;;;;;;;;7.50;6.50;;;;;;;;4994716;28;45572;-77
2023/08/23 12:25:12;;;;;;;;;6.50;6.00;;;;;;;;4996085;28;45292;-77
2023/08/23 12:27:37;;;;;;;;;7.00;7.00;;;;;;;;4995108;28;45538;-78
2023/08/23 12:30:03;;;;;;;;;8.25;6.00;;;;;;;;4996449;28;45277;-76
2023/08/23 12:32:28;;;;;;;;;6.00;6.00;;;;;;;;4993060;28;45697;-76
2023/08/23 12:34:53;;;;;;;;;8.00;8.00;;;;;;;;5006911;28;45424;-78
2023/08/23 12:37:18;;;;;;;;;6.00;6.00;;;;;;;;4996253;28;45494;-79
2023/08/23 12:39:43;;;;;;;;;7.50;7.50;;;;;;;;4996791;28;45855;-79
2023/08/23 12:42:09;;;;;;;;;7.00;5.50;;;;;;;;4994863;28;45492;-76
2023/08/23 12:44:35;;;;;;;;;8.50;8.25;;;;;;;;5000718;28;45538;-77
2023/08/23 12:47:00;;;;;;;;;6.60;5.00;;;;;;;;4998056;28;45439;-77
2023/08/23 12:49:25;;;;;;;;;6.50;6.50;;;;;;;;5000565;28;45919;-79
2023/08/23 12:51:51;;;;;;;;;7.00;6.00;;;;;;;;5010045;28;46731;-81
2023/08/23 12:54:16;;;;;;;;;8.00;7.00;;;;;;;;5015294;28;45638;-79
2023/08/23 12:56:41;;;;;;;;;6.50;6.50;;;;;;;;5013300;28;45427;-80
2023/08/23 12:59:06;;;;;;;;;6.75;6.75;;;;;;;;4998174;28;45401;-80
2023/08/23 13:01:32;;;;;;;;;10.25;7.75;;;;;;;;4999226;28;45288;-81
2023/08/23 13:03:57;;;;;;;;;4.75;4.75;;;;;;;;4997478;28;45234;-79
2023/08/23 13:06:22;;;;;;;;;5.50;5.50;;;;;;;;4999635;28;45515;-81
2023/08/23 13:08:47;;;;;;;;;8.00;7.50;;;;;;;;4998620;28;45396;-79
2023/08/23 13:11:13;;;;;;;;;6.00;6.00;;;;;;;;4999389;28;45497;-82
2023/08/23 13:13:41;;;;;;;;;6.75;5.00;;;;;;;;5011451;28;45327;-80
2023/08/23 13:16:06;;;;;;;;;16.40;12.00;;;;;;;;5000695;28;45229;-78
2023/08/23 13:18:32;;;;;;;;;7.25;7.25;;;;;;;;4997686;28;45341;-79
2023/08/23 13:20:57;;;;;;;;;10.25;8.25;;;;;;;;5000573;28;45569;-80
2023/08/23 13:23:23;;;;;;;;;6.50;5.75;;;;;;;;4993322;28;45512;-79
2023/08/23 13:25:48;;;;;;;;;4.00;4.00;;;;;;;;5000947;28;45315;-79
2023/08/23 13:28:13;;;;;;;;;9.75;7.50;;;;;;;;4997369;28;45454;-80
2023/08/23 13:30:38;;;;;;;;;5.25;5.25;;;;;;;;5000644;28;45481;-79
2023/08/23 13:33:04;;;;;;;;;6.50;6.50;;;;;;;;4997614;28;45324;-80
2023/08/23 13:35:29;;;;;;;;;5.25;5.25;;;;;;;;5001089;28;45870;-80
2023/08/23 13:37:54;;;;;;;;;6.25;6.25;;;;;;;;4993825;28;45814;-82
2023/08/23 13:40:19;;;;;;;;;6.50;6.50;;;;;;;;5000620;28;45770;-79
2023/08/23 13:42:45;;;;;;;;;31.75;22.00;;;;;;;;4992582;28;45336;-80
2023/08/23 13:45:10;;;;;;;;;8.75;8.75;;;;;;;;5000199;28;45404;-80
2023/08/23 13:47:35;;;;;;;;;6.50;6.25;;;;;;;;4995082;28;45534;-79
2023/08/23 13:50:00;;;;;;;;;12.00;9.00;;;;;;;;5000504;28;45435;-80
2023/08/23 13:52:26;;;;;;;;;7.00;7.00;;;;;;;;4994831;28;45427;-79
2023/08/23 13:54:51;;;;;;;;;10.50;7.25;;;;;;;;5006691;28;45514;-79
2023/08/23 13:57:16;;;;;;;;;5.25;5.25;;;;;;;;4995891;28;45491;-80
2023/08/23 13:59:42;;;;;;;;;7.00;5.75;;;;;;;;4999603;28;45559;-79
2023/08/23 14:02:07;;;;;;;;;8.75;7.75;;;;;;;;4994580;28;45657;-79
2023/08/23 14:04:36;;;;;;;;;5.50;5.50;;;;;;;;5000403;28;45305;-84
2023/08/23 14:07:02;;;;;;;;;7.40;6.00;;;;;;;;5008955;28;45910;-79
2023/08/23 14:09:27;;;;;;;;;8.25;6.50;;;;;;;;4999125;28;48432;-79
2023/08/23 14:11:56;;;;;;;;;6.25;6.25;;;;;;;;4995706;28;45359;-79
2023/08/23 14:14:21;;;;;;;;;6.80;6.80;;;;;;;;4997945;28;45391;-79
2023/08/23 14:16:46;;;;;;;;;7.25;6.25;;;;;;;;5010302;28;46651;-82
2023/08/23 14:19:12;;;;;;;;;4.00;4.00;;;;;;;;4999796;28;45327;-77
2023/08/23 14:21:37;;;;;;;;;5.25;5.25;;;;;;;;4997016;28;45339;-80
2023/08/23 14:24:02;;;;;;;;;7.00;7.00;;;;;;;;4998640;28;45558;-78
2023/08/23 14:26:27;;;;;;;;;8.75;6.75;;;;;;;;4998158;28;45389;-83
2023/08/23 14:28:52;;;;;;;;;4.75;4.75;;;;;;;;4998489;28;45235;-80
2023/08/23 14:31:18;;;;;;;;;6.25;6.00;;;;;;;;4997619;28;45558;-79
2023/08/23 14:33:44;;;;;;;;;11.00;8.75;;;;;;;;4997802;28;45291;-81
2023/08/23 14:36:09;;;;;;;;;5.50;5.50;;;;;;;;4999187;28;45486;-82
2023/08/23 14:38:34;;;;;;;;;4.00;3.75;;;;;;;;5006473;28;47157;-80
2023/08/23 14:40:59;;;;;;;;;5.75;5.75;;;;;;;;4999877;28;45364;-79
2023/08/23 14:43:24;;;;;;;;;10.50;10.50;;;;;;;;4999192;28;45146;-80
2023/08/23 14:45:50;;;;;;;;;5.25;4.50;;;;;;;;4999300;28;45289;-82
2023/08/23 14:48:15;;;;;;;;;5.00;5.00;;;;;;;;4993594;28;46505;-81
2023/08/23 14:50:40;;;;;;;;;3.25;3.25;;;;;;;;4998032;28;45855;-79
2023/08/23 14:53:05;;;;;;;;;8.50;6.50;;;;;;;;4994090;28;45347;-80
2023/08/23 14:55:31;;;;;;;;;4.25;4.25;;;;;;;;4999323;28;45435;-80
2023/08/23 14:57:56;;;;;;;;;5.50;5.50;;;;;;;;4993149;28;47180;-83
2023/08/23 15:00:25;;;;;;;;;6.50;6.00;;;;;;;;4999556;28;45298;-82
2023/08/23 15:02:51;;;;;;;;;4.60;4.60;;;;;;;;4993386;28;46942;-84
2023/08/23 15:05:16;;;;;;;;;4.00;4.00;;;;;;;;4999183;28;45300;-83
2023/08/23 15:07:41;;;;;;;;;8.75;7.00;;;;;;;;5004566;28;48113;-81